createdAt,value
2019-02-19T00:00:44.742Z,39.80
2019-02-19T00:03:30.805Z,39.80
2019-02-19T00:06:17.183Z,39.90
2019-02-19T00:09:05.585Z,39.80
2019-02-19T00:11:53.539Z,39.80
2019-02-19T00:14:39.801Z,39.80
2019-02-19T00:17:25.640Z,39.70
2019-02-19T00:20:12.076Z,39.80
2019-02-19T00:22:58.227Z,39.80
2019-02-19T00:25:44.168Z,39.80
2019-02-19T00:28:30.504Z,39.70
2019-02-19T00:31:16.769Z,39.80
2019-02-19T00:34:02.847Z,39.70
2019-02-19T00:36:50.048Z,39.70
2019-02-19T00:39:36.375Z,39.70
2019-02-19T00:42:22.327Z,39.80
2019-02-19T00:45:16.259Z,39.80
2019-02-19T00:47:56.211Z,39.70
2019-02-19T00:50:42.110Z,39.60
2019-02-19T00:53:28.390Z,39.60
2019-02-19T00:56:14.655Z,39.60
2019-02-19T00:59:01.182Z,39.60
2019-02-19T01:01:47.543Z,39.50
2019-02-19T01:04:34.014Z,39.50
2019-02-19T01:07:20.682Z,39.50
2019-02-19T01:10:07.288Z,39.50
2019-02-19T01:12:53.532Z,39.40
2019-02-19T01:15:39.835Z,39.50
2019-02-19T01:18:26.055Z,39.50
2019-02-19T01:21:12.316Z,39.50
2019-02-19T01:23:58.690Z,39.60
2019-02-19T01:26:44.963Z,39.50
2019-02-19T01:29:31.528Z,39.50
2019-02-19T01:32:17.789Z,39.40
2019-02-19T01:35:04.527Z,39.40
2019-02-19T01:37:51.159Z,39.40
2019-02-19T01:40:37.494Z,39.40
2019-02-19T01:43:23.621Z,39.40
2019-02-19T01:46:10.865Z,39.40
2019-02-19T01:48:57.035Z,39.30
2019-02-19T01:51:43.347Z,39.30
2019-02-19T01:54:29.749Z,39.30
2019-02-19T01:57:15.617Z,39.30
2019-02-19T02:00:01.961Z,39.30
2019-02-19T02:02:48.369Z,39.30
2019-02-19T02:05:34.619Z,39.30
2019-02-19T02:08:20.532Z,39.40
2019-02-19T02:11:06.753Z,39.30
2019-02-19T02:13:53.068Z,39.40
2019-02-19T02:16:38.912Z,39.40
2019-02-19T02:19:25.807Z,39.30
2019-02-19T02:22:12.136Z,39.30
2019-02-19T02:24:58.791Z,39.30
2019-02-19T02:27:44.554Z,39.30
2019-02-19T02:30:30.899Z,39.30
2019-02-19T02:33:17.309Z,39.30
2019-02-19T02:36:04.731Z,39.30
2019-02-19T02:38:50.807Z,39.30
2019-02-19T02:41:36.827Z,39.30
2019-02-19T02:44:23.253Z,39.30
2019-02-19T02:47:09.820Z,39.30
2019-02-19T02:49:56.153Z,39.30
2019-02-19T02:52:42.156Z,39.30
2019-02-19T02:55:28.583Z,39.30
2019-02-19T02:58:14.828Z,39.30
2019-02-19T03:01:00.700Z,39.30
2019-02-19T03:03:47.353Z,39.30
2019-02-19T03:07:05.373Z,39.30
2019-02-19T03:09:51.490Z,39.30
2019-02-19T03:12:37.593Z,39.30
2019-02-19T03:15:23.885Z,39.30
2019-02-19T03:18:10.157Z,39.20
2019-02-19T03:20:56.645Z,39.30
2019-02-19T03:23:42.888Z,39.30
2019-02-19T03:26:29.276Z,39.30
2019-02-19T03:29:15.651Z,39.20
2019-02-19T03:32:01.940Z,39.20
2019-02-19T03:34:48.373Z,39.20
2019-02-19T03:37:34.707Z,39.20
2019-02-19T03:40:20.848Z,39.20
2019-02-19T03:43:07.748Z,39.20
2019-02-19T03:45:54.057Z,39.20
2019-02-19T03:48:40.396Z,39.20
2019-02-19T03:51:26.760Z,39.20
2019-02-19T03:54:13.093Z,39.20
2019-02-19T03:56:59.421Z,39.20
2019-02-19T03:59:45.899Z,39.20
2019-02-19T04:02:32.056Z,39.20
2019-02-19T04:05:18.400Z,39.20
2019-02-19T04:08:04.864Z,39.20
2019-02-19T04:10:51.099Z,39.20
2019-02-19T04:13:37.432Z,39.20
2019-02-19T04:16:23.881Z,39.20
2019-02-19T04:19:10.045Z,39.20
2019-02-19T04:21:56.386Z,39.20
2019-02-19T04:24:42.811Z,39.20
2019-02-19T04:27:29.020Z,39.20
2019-02-19T04:30:15.504Z,39.20
2019-02-19T04:33:01.743Z,39.20
2019-02-19T04:35:47.988Z,39.20
2019-02-19T04:38:33.899Z,39.10
2019-02-19T04:41:20.076Z,39.20
2019-02-19T04:44:06.883Z,39.10
2019-02-19T04:46:53.323Z,39.10
2019-02-19T04:49:40.128Z,39.10
2019-02-19T04:52:26.523Z,39.10
2019-02-19T04:55:13.099Z,39.10
2019-02-19T04:57:59.342Z,39.10
2019-02-19T05:00:46.148Z,39.00
2019-02-19T05:03:32.528Z,39.10
2019-02-19T05:06:19.469Z,39.00
2019-02-19T05:09:05.643Z,39.20
2019-02-19T05:11:52.860Z,39.10
2019-02-19T05:14:39.015Z,39.10
2019-02-19T05:17:24.895Z,39.10
2019-02-19T05:20:11.260Z,39.00
2019-02-19T05:22:57.523Z,39.10
2019-02-19T05:25:43.282Z,39.10
2019-02-19T05:28:29.156Z,39.00
2019-02-19T05:31:15.527Z,39.00
2019-02-19T05:34:03.074Z,39.10
2019-02-19T05:36:49.332Z,39.00
2019-02-19T05:39:35.592Z,39.00
2019-02-19T05:42:22.019Z,38.90
2019-02-19T05:45:08.403Z,39.00
2019-02-19T05:47:54.686Z,39.00
2019-02-19T05:50:41.107Z,39.00
2019-02-19T05:53:26.975Z,39.00
2019-02-19T05:56:13.401Z,38.90
2019-02-19T05:58:59.751Z,39.00
2019-02-19T06:01:46.087Z,39.00
2019-02-19T06:04:32.368Z,39.00
2019-02-19T06:07:18.671Z,38.90
2019-02-19T06:10:05.912Z,38.90
2019-02-19T06:12:51.863Z,38.90
2019-02-19T06:15:37.691Z,38.90
2019-02-19T06:18:24.163Z,38.90
2019-02-19T06:21:10.118Z,38.90
2019-02-19T06:23:56.372Z,38.90
2019-02-19T06:26:42.652Z,38.90
2019-02-19T06:29:29.277Z,38.90
2019-02-19T06:32:15.476Z,38.90
2019-02-19T06:35:01.284Z,38.90
2019-02-19T06:37:47.740Z,38.90
2019-02-19T06:40:33.977Z,38.90
2019-02-19T06:43:20.255Z,38.90
2019-02-19T06:46:06.603Z,39.00
2019-02-19T06:48:52.459Z,39.20
2019-02-19T06:51:38.670Z,39.50
2019-02-19T06:54:26.064Z,39.60
2019-02-19T06:57:12.498Z,39.70
2019-02-19T06:59:58.826Z,39.80
2019-02-19T07:03:06.665Z,39.90
2019-02-19T07:05:53.710Z,40.10
2019-02-19T07:08:40.075Z,40.20
2019-02-19T07:11:26.378Z,40.30
2019-02-19T07:14:12.619Z,40.50
2019-02-19T07:16:58.431Z,40.80
2019-02-19T07:19:44.967Z,40.90
2019-02-19T07:22:31.164Z,41.10
2019-02-19T07:25:17.535Z,41.10
2019-02-19T07:28:03.971Z,41.20
2019-02-19T07:30:50.226Z,41.20
2019-02-19T07:33:36.599Z,41.30
2019-02-19T07:36:22.970Z,41.40
2019-02-19T07:39:09.288Z,41.40
2019-02-19T07:41:55.755Z,41.50
2019-02-19T07:44:42.020Z,41.50
2019-02-19T07:47:28.253Z,41.60
2019-02-19T07:50:14.022Z,41.60
2019-02-19T07:53:00.603Z,41.70
2019-02-19T07:55:46.872Z,41.70
2019-02-19T07:58:33.305Z,41.70
2019-02-19T08:01:19.545Z,41.80
2019-02-19T08:04:05.417Z,41.70
2019-02-19T08:06:51.873Z,41.70
2019-02-19T08:09:38.348Z,41.80
2019-02-19T08:12:26.243Z,41.80
2019-02-19T08:15:12.903Z,41.80
2019-02-19T08:17:59.244Z,41.80
2019-02-19T08:20:45.579Z,41.70
2019-02-19T08:23:31.967Z,41.70
2019-02-19T08:26:18.204Z,41.70
2019-02-19T08:29:13.475Z,41.70
2019-02-19T08:31:52.476Z,41.80
2019-02-19T08:34:38.232Z,41.70
2019-02-19T08:37:24.564Z,41.70
2019-02-19T08:40:10.966Z,41.60
2019-02-19T08:42:57.173Z,41.60
2019-02-19T08:45:43.530Z,41.50
2019-02-19T08:48:29.971Z,41.50
2019-02-19T08:51:16.170Z,41.20
2019-02-19T08:54:02.708Z,41.10
2019-02-19T08:56:48.856Z,41.00
2019-02-19T08:59:34.725Z,41.00
2019-02-19T09:02:21.147Z,40.80
2019-02-19T09:05:07.831Z,40.80
2019-02-19T09:07:54.135Z,40.70
2019-02-19T09:10:40.716Z,40.70
2019-02-19T09:13:26.951Z,40.70
2019-02-19T09:16:13.516Z,40.50
2019-02-19T09:18:59.936Z,41.00
2019-02-19T09:21:46.236Z,40.10
2019-02-19T09:24:32.578Z,39.90
2019-02-19T09:27:19.060Z,39.70
2019-02-19T09:30:08.115Z,39.70
2019-02-19T09:32:54.143Z,39.70
2019-02-19T09:35:40.679Z,39.70
2019-02-19T09:38:26.447Z,39.70
2019-02-19T09:41:12.779Z,39.70
2019-02-19T09:43:59.313Z,39.70
2019-02-19T09:46:45.487Z,39.70
2019-02-19T09:49:31.430Z,39.70
2019-02-19T09:52:17.718Z,39.70
2019-02-19T09:55:04.191Z,39.70
2019-02-19T09:57:50.568Z,39.70
2019-02-19T10:00:36.483Z,39.70
2019-02-19T10:03:22.803Z,39.70
2019-02-19T10:06:09.287Z,39.70
2019-02-19T10:08:55.489Z,39.80
2019-02-19T10:11:41.817Z,39.80
2019-02-19T10:14:28.343Z,39.80
2019-02-19T10:17:14.471Z,39.90
2019-02-19T10:20:00.716Z,40.00
2019-02-19T10:22:47.192Z,39.90
2019-02-19T10:25:33.436Z,40.00
2019-02-19T10:28:19.343Z,40.10
2019-02-19T10:31:05.136Z,40.20
2019-02-19T10:33:51.409Z,40.30
2019-02-19T10:36:38.629Z,40.40
2019-02-19T10:39:25.191Z,40.40
2019-02-19T10:42:11.417Z,40.40
2019-02-19T10:44:57.383Z,40.40
2019-02-19T10:47:43.118Z,40.30
2019-02-19T10:50:29.890Z,40.10
2019-02-19T10:53:16.266Z,40.10
2019-02-19T10:56:02.556Z,40.00
2019-02-19T10:58:48.829Z,40.00
2019-02-19T11:01:35.419Z,40.00
2019-02-19T11:04:21.615Z,40.10
2019-02-19T11:07:07.430Z,40.20
2019-02-19T11:09:53.777Z,40.20
2019-02-19T11:12:40.211Z,40.20
2019-02-19T11:15:26.020Z,40.90
2019-02-19T11:18:12.439Z,40.40
2019-02-19T11:20:58.712Z,40.30
2019-02-19T11:23:46.133Z,40.50
2019-02-19T11:26:32.380Z,40.40
2019-02-19T11:29:18.238Z,40.30
2019-02-19T11:32:04.789Z,40.50
2019-02-19T11:34:51.095Z,40.40
2019-02-19T11:37:37.505Z,40.60
2019-02-19T11:40:23.746Z,40.50
2019-02-19T11:43:09.995Z,40.50
2019-02-19T11:45:56.327Z,41.20
2019-02-19T11:48:42.689Z,40.60
2019-02-19T11:51:29.048Z,40.70
2019-02-19T11:54:15.526Z,40.80
2019-02-19T11:57:01.968Z,40.70
2019-02-19T11:59:47.721Z,40.70
2019-02-19T12:02:34.055Z,40.80
2019-02-19T12:05:20.142Z,40.80
2019-02-19T12:08:06.163Z,40.80
2019-02-19T12:10:52.595Z,40.90
2019-02-19T12:13:38.937Z,40.90
2019-02-19T12:16:25.271Z,40.90
2019-02-19T12:19:11.695Z,40.90
2019-02-19T12:21:58.004Z,40.90
2019-02-19T12:24:44.400Z,40.90
2019-02-19T12:27:30.857Z,41.00
2019-02-19T12:30:17.127Z,41.00
2019-02-19T12:33:02.971Z,41.10
2019-02-19T12:35:49.292Z,41.10
2019-02-19T12:38:35.477Z,41.10
2019-02-19T12:41:22.495Z,41.20
2019-02-19T12:44:08.764Z,41.10
2019-02-19T12:46:54.587Z,41.20
2019-02-19T12:49:40.848Z,41.20
2019-02-19T12:52:27.503Z,41.20
2019-02-19T12:55:13.761Z,41.30
2019-02-19T12:58:00.271Z,41.40
2019-02-19T13:00:46.544Z,41.40
2019-02-19T13:03:32.856Z,41.50
2019-02-19T13:06:19.167Z,41.50
2019-02-19T13:09:05.867Z,41.60
2019-02-19T13:11:53.193Z,41.80
2019-02-19T13:14:39.711Z,41.80
2019-02-19T13:17:26.948Z,41.90
2019-02-19T13:20:13.455Z,42.00
2019-02-19T13:22:59.962Z,42.00
2019-02-19T13:25:46.260Z,42.10
2019-02-19T13:28:32.153Z,42.20
2019-02-19T13:31:18.606Z,42.30
2019-02-19T13:34:04.965Z,42.30
2019-02-19T13:36:51.372Z,42.30
2019-02-19T13:39:37.164Z,42.40
2019-02-19T13:42:23.976Z,42.30
2019-02-19T13:45:11.151Z,42.40
2019-02-19T13:48:05.525Z,42.40
2019-02-19T13:50:44.919Z,42.40
2019-02-19T13:53:43.596Z,42.30
2019-02-19T13:56:29.864Z,42.40
2019-02-19T13:59:15.862Z,42.40
2019-02-19T14:02:02.336Z,42.50
2019-02-19T14:04:48.271Z,42.50
2019-02-19T14:07:34.515Z,42.70
2019-02-19T14:10:20.910Z,42.70
2019-02-19T14:13:07.133Z,42.80
2019-02-19T14:16:08.263Z,43.00
2019-02-19T14:19:00.398Z,43.10
2019-02-19T14:22:03.037Z,43.10
2019-02-19T14:25:02.092Z,43.20
2019-02-19T14:28:07.880Z,43.30
2019-02-19T14:31:31.663Z,43.50
2019-02-19T14:34:36.100Z,43.50
2019-02-19T14:37:32.396Z,43.70
2019-02-19T14:40:38.040Z,43.70
2019-02-19T14:43:43.503Z,43.80
2019-02-19T14:46:57.949Z,43.90
2019-02-19T14:50:15.159Z,43.90
2019-02-19T14:53:29.287Z,43.90
2019-02-19T14:56:33.403Z,43.90
2019-02-19T14:59:44.815Z,43.90
2019-02-19T15:02:48.948Z,44.00
2019-02-19T15:06:00.556Z,44.00
2019-02-19T15:09:19.511Z,44.00
2019-02-19T15:12:13.083Z,44.00
2019-02-19T15:15:34.083Z,44.00
2019-02-19T15:18:38.435Z,44.00
2019-02-19T15:21:43.101Z,44.10
2019-02-19T15:24:48.315Z,44.10
2019-02-19T15:27:43.804Z,44.10
2019-02-19T15:30:44.768Z,44.00
2019-02-19T15:33:50.345Z,44.10
2019-02-19T15:36:54.820Z,44.00
2019-02-19T15:40:06.287Z,43.50
2019-02-19T15:43:11.280Z,43.20
2019-02-19T15:46:16.600Z,43.30
2019-02-19T15:49:28.958Z,43.30
2019-02-19T15:52:43.789Z,43.40
2019-02-19T15:55:51.776Z,43.40
2019-02-19T15:58:48.868Z,43.30
2019-02-19T16:02:04.089Z,43.20
2019-02-19T16:05:19.335Z,43.10
2019-02-19T16:08:25.145Z,43.10
2019-02-19T16:11:31.016Z,43.00
2019-02-19T16:14:36.922Z,42.90
2019-02-19T16:17:41.113Z,42.80
2019-02-19T16:20:53.251Z,42.70
2019-02-19T16:23:59.165Z,42.70
2019-02-19T16:27:11.006Z,42.70
2019-02-19T16:30:25.300Z,42.50
2019-02-19T16:33:39.984Z,42.50
2019-02-19T16:36:44.156Z,42.50
2019-02-19T16:39:52.451Z,42.40
2019-02-19T16:42:58.355Z,42.40
2019-02-19T16:45:52.667Z,42.40
2019-02-19T16:48:54.383Z,42.30
2019-02-19T16:52:06.281Z,42.30
2019-02-19T16:55:00.373Z,42.40
2019-02-19T16:58:05.487Z,42.20
2019-02-19T17:01:07.484Z,42.30
2019-02-19T17:04:16.516Z,42.20
2019-02-19T17:07:22.245Z,42.20
2019-02-19T17:10:26.386Z,42.20
2019-02-19T17:13:20.927Z,42.20
2019-02-19T17:16:31.625Z,42.20
2019-02-19T17:19:35.311Z,42.20
2019-02-19T17:22:39.157Z,42.20
2019-02-19T17:25:38.124Z,42.20
2019-02-19T17:28:36.092Z,42.20
2019-02-19T17:31:44.323Z,42.20
2019-02-19T17:34:53.001Z,42.10
2019-02-19T17:38:14.445Z,42.10
2019-02-19T17:41:26.618Z,42.10
2019-02-19T17:44:47.067Z,42.10
2019-02-19T17:47:55.673Z,42.00
2019-02-19T17:50:49.704Z,42.10
2019-02-19T17:54:10.500Z,42.00
2019-02-19T17:57:25.237Z,42.00
2019-02-19T18:00:33.993Z,42.00
2019-02-19T18:03:42.130Z,42.00
2019-02-19T18:06:44.592Z,42.00
2019-02-19T18:09:40.605Z,41.90
2019-02-19T18:12:36.168Z,41.90
2019-02-19T18:15:50.052Z,41.90
2019-02-19T18:18:55.613Z,41.80
2019-02-19T18:21:42.007Z,41.80
2019-02-19T18:24:28.407Z,41.80
2019-02-19T18:27:16.564Z,41.70
2019-02-19T18:30:03.400Z,41.70
2019-02-19T18:32:51.569Z,41.60
2019-02-19T18:35:37.736Z,41.70
2019-02-19T18:38:24.727Z,41.60
2019-02-19T18:41:11.156Z,41.60
2019-02-19T18:43:56.951Z,41.60
2019-02-19T18:46:42.932Z,41.60
2019-02-19T18:49:28.636Z,41.70
2019-02-19T18:52:14.898Z,41.60
2019-02-19T18:55:01.329Z,41.60
2019-02-19T18:57:47.564Z,41.60
2019-02-19T19:00:33.818Z,41.60
2019-02-19T19:03:20.336Z,41.50
2019-02-19T19:06:06.565Z,41.40
2019-02-19T19:08:52.884Z,41.40
2019-02-19T19:11:38.880Z,41.40
2019-02-19T19:14:25.185Z,41.40
2019-02-19T19:17:11.670Z,41.40
2019-02-19T19:19:58.061Z,41.40
2019-02-19T19:22:44.452Z,41.40
2019-02-19T19:25:30.862Z,41.30
2019-02-19T19:28:17.163Z,41.30
2019-02-19T19:31:02.956Z,41.30
2019-02-19T19:33:49.484Z,41.20
2019-02-19T19:36:35.667Z,41.20
2019-02-19T19:39:21.946Z,41.20
2019-02-19T19:42:08.467Z,41.10
2019-02-19T19:44:54.700Z,41.00
2019-02-19T19:47:40.987Z,41.00
2019-02-19T19:50:27.754Z,40.90
2019-02-19T19:53:14.012Z,41.00
2019-02-19T19:56:00.482Z,40.90
2019-02-19T19:58:46.861Z,40.90
2019-02-19T20:01:33.122Z,40.90
2019-02-19T20:04:19.391Z,40.80
2019-02-19T20:07:06.828Z,40.80
2019-02-19T20:09:53.142Z,40.90
2019-02-19T20:12:39.925Z,40.70
2019-02-19T20:15:26.212Z,40.70
2019-02-19T20:18:12.505Z,40.70
2019-02-19T20:20:58.377Z,40.60
2019-02-19T20:23:44.724Z,40.60
2019-02-19T20:26:30.937Z,40.60
2019-02-19T20:29:17.408Z,40.60
2019-02-19T20:32:03.172Z,40.50
2019-02-19T20:34:50.645Z,40.50
2019-02-19T20:37:37.138Z,40.50
2019-02-19T20:40:23.320Z,40.40
2019-02-19T20:43:09.702Z,40.90
2019-02-19T20:45:56.250Z,40.30
2019-02-19T20:48:42.555Z,40.30
2019-02-19T20:51:36.192Z,40.20
2019-02-19T20:54:16.912Z,40.20
2019-02-19T20:57:03.305Z,40.10
2019-02-19T20:59:49.620Z,40.10
2019-02-19T21:02:36.239Z,40.10
2019-02-19T21:05:22.514Z,40.00
2019-02-19T21:08:08.974Z,40.10
2019-02-19T21:10:55.428Z,40.00
2019-02-19T21:13:41.852Z,39.90
2019-02-19T21:16:28.265Z,40.00
2019-02-19T21:19:14.649Z,40.60
2019-02-19T21:22:00.935Z,40.00
2019-02-19T21:24:46.911Z,40.00
2019-02-19T21:27:34.498Z,39.90
2019-02-19T21:30:20.754Z,39.80
2019-02-19T21:33:07.023Z,39.80
2019-02-19T21:35:57.639Z,39.80
2019-02-19T21:38:41.228Z,39.70
2019-02-19T21:41:27.724Z,39.70
2019-02-19T21:44:14.260Z,39.70
2019-02-19T21:47:00.600Z,39.70
2019-02-19T21:49:46.816Z,39.60
2019-02-19T21:52:33.219Z,39.60
2019-02-19T21:55:19.439Z,39.50
2019-02-19T21:58:05.875Z,39.60
2019-02-19T22:00:52.196Z,39.50
2019-02-19T22:03:39.825Z,39.40
2019-02-19T22:06:25.772Z,39.50
2019-02-19T22:09:12.076Z,39.40
2019-02-19T22:11:59.856Z,39.50
2019-02-19T22:14:46.275Z,39.40
2019-02-19T22:17:32.531Z,39.40
2019-02-19T22:20:50.108Z,39.40
2019-02-19T22:23:36.699Z,39.40
2019-02-19T22:26:23.065Z,39.40
2019-02-19T22:29:09.392Z,39.40
2019-02-19T22:31:55.448Z,39.30
2019-02-19T22:34:41.572Z,39.30
2019-02-19T22:37:27.660Z,39.50
2019-02-19T22:40:14.207Z,39.40
2019-02-19T22:43:00.375Z,39.40
2019-02-19T22:45:46.762Z,39.30
2019-02-19T22:48:33.220Z,39.40
2019-02-19T22:51:19.615Z,40.00
2019-02-19T22:54:13.044Z,39.40
2019-02-19T22:56:59.019Z,39.30
2019-02-19T22:59:45.458Z,39.30
2019-02-19T23:02:32.111Z,39.30
2019-02-19T23:05:18.115Z,39.20
2019-02-19T23:08:04.415Z,39.20
2019-02-19T23:10:50.715Z,39.20
2019-02-19T23:13:38.538Z,39.20
2019-02-19T23:16:25.059Z,39.10
2019-02-19T23:19:11.326Z,39.20
2019-02-19T23:21:57.299Z,39.10
2019-02-19T23:24:43.547Z,39.00
2019-02-19T23:27:30.493Z,39.10
2019-02-19T23:30:16.798Z,39.10
2019-02-19T23:33:03.179Z,39.10
2019-02-19T23:36:00.411Z,39.10
2019-02-19T23:38:46.387Z,39.10
2019-02-19T23:41:32.683Z,39.10
2019-02-19T23:44:18.777Z,39.10
2019-02-19T23:47:05.040Z,39.10
2019-02-19T23:49:50.940Z,39.00
2019-02-19T23:52:37.213Z,39.10
2019-02-19T23:55:23.467Z,39.10
2019-02-19T23:58:09.828Z,39.10
